Key West, FL

13:19 EST le 07 décembre 2016 (GMT -0500)
Key West High School WeatherSTEM | | Change Station

Alt. 0 ft 24.55 °N, 81.78 °W | Updated 2 minutes ago

Clear
Ciel dégagé
81.9 ° F
Paraît 90 ° F
N
2.0
Vent Variable Vent de Sud

Aujourd'hui
Haut(e) -- | Bas -- ° F
--% Risque de précip.
Hier
Haut(e) -- | Bas -- ° F
Precip. -- pouce
Pression 30.03 pouce
Visibilité 10.0 Miles terrestres
Nuages Ciel dégagé
indice de chaleur 90 ° F
Point de rosée 77 ° F
Humidité 84%
Précipitations 0.00 pouce
Profondeur de la couche neigeuse Non disponible.
6:58 AM 5:38 PM
Premier quartier, 54% visible
SPECI KEYW 071756Z VRB04KT 10SM CLR 27/25 A3003 RMK AO2 T02670250
Pression 30.03 pouce
Visibilité 10.0 Miles terrestres
Nuages Ciel dégagé
indice de chaleur 90 ° F
Point de rosée 77 ° F
Humidité 84%
Précipitations 0.00 pouce
Profondeur de la couche neigeuse Non disponible.
6:58 AM 5:38 PM
Premier quartier, 54% visible
SPECI KEYW 071756Z VRB04KT 10SM CLR 27/25 A3003 RMK AO2 T02670250

10-Day Weather Forecast

Almanac

Astronomie

Dec. 07, 2016 Lever Coucher
Temps réel
Crépuscule civil
Crépuscule nautique
Crépuscule astronomique
Lune
Durée de lumière visible
Longueur du jour
Tomorrow will be .
, % of the Moon is Illuminated

Extrêmes aujourd'hui

State Highs State Lows

Community

WunderPhotos

Upload Photos

1,956,157 Photos téléchargées !

WunderBlog® & News

Nearby

Qualité de l'air

  Qualité de l'air Indice de la qualité de l'air Polluant
Not available.

Épaisseur de neige

Station Depth Altitude

Activité sismique

Ville Distance Mag. Time & Date
Minimum magnitude displayed is 2.5.

Températures des eaux côtières

Lieu Température

Stations

Stations météo à proximité

Emplacement de la station Température Refroidissement éolien Point de rosée Humidité Vent Precip. Alt. Mise à jour Type
                   

Watches & Warnings

There are currently no watches in effect.